sensor_id;sensor_type;location;lat;lon;timestamp;pressure;altitude;pressure_sealevel;temperature
12918;BMP180;6526;54.312;13.092;2022-08-11T00:01:24;103002.00;;;22.40
12918;BMP180;6526;54.312;13.092;2022-08-11T00:03:59;102998.00;;;22.40
12918;BMP180;6526;54.312;13.092;2022-08-11T00:06:34;102998.00;;;22.40
12918;BMP180;6526;54.312;13.092;2022-08-11T00:09:02;103010.00;;;22.40
12918;BMP180;6526;54.312;13.092;2022-08-11T00:11:35;102996.00;;;22.30
12918;BMP180;6526;54.312;13.092;2022-08-11T00:14:06;102993.00;;;22.30
12918;BMP180;6526;54.312;13.092;2022-08-11T00:16:38;103007.00;;;22.30
12918;BMP180;6526;54.312;13.092;2022-08-11T00:19:05;102996.00;;;22.30
12918;BMP180;6526;54.312;13.092;2022-08-11T00:21:40;102995.00;;;22.30
12918;BMP180;6526;54.312;13.092;2022-08-11T00:24:08;102994.00;;;22.30
12918;BMP180;6526;54.312;13.092;2022-08-11T00:26:35;102997.00;;;22.20
12918;BMP180;6526;54.312;13.092;2022-08-11T00:29:11;102999.00;;;22.20
12918;BMP180;6526;54.312;13.092;2022-08-11T00:31:37;102994.00;;;22.10
12918;BMP180;6526;54.312;13.092;2022-08-11T00:34:10;102993.00;;;22.10
12918;BMP180;6526;54.312;13.092;2022-08-11T00:36:53;102990.00;;;22.10
12918;BMP180;6526;54.312;13.092;2022-08-11T00:39:22;102982.00;;;22.10
12918;BMP180;6526;54.312;13.092;2022-08-11T00:47:55;102998.00;;;22.00
12918;BMP180;6526;54.312;13.092;2022-08-11T00:50:38;102989.00;;;22.00
12918;BMP180;6526;54.312;13.092;2022-08-11T00:53:44;103002.00;;;21.90
12918;BMP180;6526;54.312;13.092;2022-08-11T00:56:38;103008.00;;;21.90
12918;BMP180;6526;54.312;13.092;2022-08-11T00:59:22;102994.00;;;21.90
12918;BMP180;6526;54.312;13.092;2022-08-11T01:04:52;103008.00;;;21.80
12918;BMP180;6526;54.312;13.092;2022-08-11T01:18:37;103020.00;;;21.60
12918;BMP180;6526;54.312;13.092;2022-08-11T01:29:53;102998.00;;;21.50
12918;BMP180;6526;54.312;13.092;2022-08-11T01:45:02;103005.00;;;21.30
12918;BMP180;6526;54.312;13.092;2022-08-11T01:47:38;103004.00;;;21.20
12918;BMP180;6526;54.312;13.092;2022-08-11T01:53:09;102997.00;;;21.20
12918;BMP180;6526;54.312;13.092;2022-08-11T01:56:00;103007.00;;;21.20
12918;BMP180;6526;54.312;13.092;2022-08-11T01:58:57;103010.00;;;21.10
12918;BMP180;6526;54.312;13.092;2022-08-11T02:01:35;103004.00;;;21.10
12918;BMP180;6526;54.312;13.092;2022-08-11T02:04:23;103003.00;;;21.10
12918;BMP180;6526;54.312;13.092;2022-08-11T02:07:16;102996.00;;;21.00
12918;BMP180;6526;54.312;13.092;2022-08-11T02:15:54;102990.00;;;20.90
12918;BMP180;6526;54.312;13.092;2022-08-11T02:18:27;102990.00;;;20.90
12918;BMP180;6526;54.312;13.092;2022-08-11T02:21:24;102992.00;;;20.80
12918;BMP180;6526;54.312;13.092;2022-08-11T02:24:18;102991.00;;;20.90
12918;BMP180;6526;54.312;13.092;2022-08-11T02:29:55;102995.00;;;20.80
12918;BMP180;6526;54.312;13.092;2022-08-11T02:32:40;102999.00;;;20.80
12918;BMP180;6526;54.312;13.092;2022-08-11T02:35:44;102981.00;;;20.80
12918;BMP180;6526;54.312;13.092;2022-08-11T02:38:39;102995.00;;;20.80
12918;BMP180;6526;54.312;13.092;2022-08-11T02:47:51;102993.00;;;20.70
12918;BMP180;6526;54.312;13.092;2022-08-11T02:50:59;102988.00;;;20.70
12918;BMP180;6526;54.312;13.092;2022-08-11T02:59:07;103003.00;;;20.70
12918;BMP180;6526;54.312;13.092;2022-08-11T03:08:12;102992.00;;;20.60
12918;BMP180;6526;54.312;13.092;2022-08-11T03:11:06;102991.00;;;20.50
12918;BMP180;6526;54.312;13.092;2022-08-11T03:14:30;102987.00;;;20.60
12918;BMP180;6526;54.312;13.092;2022-08-11T03:17:36;102990.00;;;20.50
12918;BMP180;6526;54.312;13.092;2022-08-11T03:20:16;102976.00;;;20.50
12918;BMP180;6526;54.312;13.092;2022-08-11T03:23:06;102984.00;;;20.50
12918;BMP180;6526;54.312;13.092;2022-08-11T03:26:14;102996.00;;;20.50
12918;BMP180;6526;54.312;13.092;2022-08-11T03:31:36;102989.00;;;20.40
12918;BMP180;6526;54.312;13.092;2022-08-11T03:34:14;102985.00;;;20.50
12918;BMP180;6526;54.312;13.092;2022-08-11T03:39:41;102985.00;;;20.60
12918;BMP180;6526;54.312;13.092;2022-08-11T03:42:24;102989.00;;;20.60
12918;BMP180;6526;54.312;13.092;2022-08-11T03:48:04;102990.00;;;20.60
12918;BMP180;6526;54.312;13.092;2022-08-11T03:53:31;102983.00;;;20.70
12918;BMP180;6526;54.312;13.092;2022-08-11T03:56:12;102988.00;;;20.60
12918;BMP180;6526;54.312;13.092;2022-08-11T04:11:06;102981.00;;;20.70
12918;BMP180;6526;54.312;13.092;2022-08-11T04:23:06;102971.00;;;21.00
12918;BMP180;6526;54.312;13.092;2022-08-11T04:25:49;102988.00;;;21.10
12918;BMP180;6526;54.312;13.092;2022-08-11T04:28:48;102982.00;;;21.20
12918;BMP180;6526;54.312;13.092;2022-08-11T04:34:11;102981.00;;;21.30
12918;BMP180;6526;54.312;13.092;2022-08-11T04:36:51;102981.00;;;21.20
12918;BMP180;6526;54.312;13.092;2022-08-11T04:58:11;102977.00;;;21.70
12918;BMP180;6526;54.312;13.092;2022-08-11T05:07:29;102964.00;;;22.00
12918;BMP180;6526;54.312;13.092;2022-08-11T05:13:06;102970.00;;;22.20
12918;BMP180;6526;54.312;13.092;2022-08-11T05:16:10;102978.00;;;22.20
12918;BMP180;6526;54.312;13.092;2022-08-11T05:18:56;102974.00;;;22.40
12918;BMP180;6526;54.312;13.092;2022-08-11T05:21:44;102969.00;;;22.40
12918;BMP180;6526;54.312;13.092;2022-08-11T05:27:19;102980.00;;;22.70
12918;BMP180;6526;54.312;13.092;2022-08-11T05:30:08;102976.00;;;22.80
12918;BMP180;6526;54.312;13.092;2022-08-11T05:33:14;102952.00;;;22.90
12918;BMP180;6526;54.312;13.092;2022-08-11T05:39:02;102970.00;;;23.20
12918;BMP180;6526;54.312;13.092;2022-08-11T05:41:49;102981.00;;;23.40
12918;BMP180;6526;54.312;13.092;2022-08-11T05:44:35;102985.00;;;23.50
12918;BMP180;6526;54.312;13.092;2022-08-11T05:47:23;102979.00;;;23.60
12918;BMP180;6526;54.312;13.092;2022-08-11T05:50:14;102991.00;;;23.80
12918;BMP180;6526;54.312;13.092;2022-08-11T05:53:02;102986.00;;;23.90
12918;BMP180;6526;54.312;13.092;2022-08-11T05:55:49;102978.00;;;24.10
12918;BMP180;6526;54.312;13.092;2022-08-11T05:58:39;102998.00;;;24.20
12918;BMP180;6526;54.312;13.092;2022-08-11T06:01:07;102993.00;;;24.20
12918;BMP180;6526;54.312;13.092;2022-08-11T06:03:34;102996.00;;;24.20
12918;BMP180;6526;54.312;13.092;2022-08-11T06:06:21;102988.00;;;24.10
12918;BMP180;6526;54.312;13.092;2022-08-11T06:08:47;103001.00;;;24.10
12918;BMP180;6526;54.312;13.092;2022-08-11T06:11:15;102988.00;;;24.30
12918;BMP180;6526;54.312;13.092;2022-08-11T06:13:44;102978.00;;;24.50
12918;BMP180;6526;54.312;13.092;2022-08-11T06:16:13;102990.00;;;24.60
12918;BMP180;6526;54.312;13.092;2022-08-11T06:18:45;102995.00;;;24.70
12918;BMP180;6526;54.312;13.092;2022-08-11T06:21:13;102992.00;;;25.00
12918;BMP180;6526;54.312;13.092;2022-08-11T06:23:41;102998.00;;;25.20
12918;BMP180;6526;54.312;13.092;2022-08-11T06:26:09;102999.00;;;25.40
12918;BMP180;6526;54.312;13.092;2022-08-11T06:28:38;102990.00;;;25.50
12918;BMP180;6526;54.312;13.092;2022-08-11T06:31:13;102993.00;;;25.70
12918;BMP180;6526;54.312;13.092;2022-08-11T06:34:10;102995.00;;;25.70
12918;BMP180;6526;54.312;13.092;2022-08-11T06:36:53;102989.00;;;25.80
12918;BMP180;6526;54.312;13.092;2022-08-11T06:39:46;102989.00;;;25.70
12918;BMP180;6526;54.312;13.092;2022-08-11T06:42:33;103000.00;;;25.80
12918;BMP180;6526;54.312;13.092;2022-08-11T06:45:39;102986.00;;;25.90
12918;BMP180;6526;54.312;13.092;2022-08-11T06:48:15;103003.00;;;26.00
12918;BMP180;6526;54.312;13.092;2022-08-11T06:50:48;102990.00;;;26.10
12918;BMP180;6526;54.312;13.092;2022-08-11T06:53:37;102987.00;;;26.40
12918;BMP180;6526;54.312;13.092;2022-08-11T06:56:04;102989.00;;;26.70
12918;BMP180;6526;54.312;13.092;2022-08-11T06:58:50;102979.00;;;26.80
12918;BMP180;6526;54.312;13.092;2022-08-11T07:02:04;102975.00;;;26.90
12918;BMP180;6526;54.312;13.092;2022-08-11T07:04:55;102987.00;;;27.10
12918;BMP180;6526;54.312;13.092;2022-08-11T07:13:38;102986.00;;;27.20
12918;BMP180;6526;54.312;13.092;2022-08-11T07:16:30;102980.00;;;27.20
12918;BMP180;6526;54.312;13.092;2022-08-11T07:19:06;102975.00;;;27.20
12918;BMP180;6526;54.312;13.092;2022-08-11T07:21:54;102977.00;;;27.20
12918;BMP180;6526;54.312;13.092;2022-08-11T07:24:42;102983.00;;;27.30
12918;BMP180;6526;54.312;13.092;2022-08-11T07:27:45;102977.00;;;27.70
12918;BMP180;6526;54.312;13.092;2022-08-11T07:30:34;102974.00;;;28.00
12918;BMP180;6526;54.312;13.092;2022-08-11T07:33:02;102968.00;;;28.30
12918;BMP180;6526;54.312;13.092;2022-08-11T07:35:35;102970.00;;;28.20
12918;BMP180;6526;54.312;13.092;2022-08-11T07:38:09;102969.00;;;28.20
12918;BMP180;6526;54.312;13.092;2022-08-11T07:40:37;102963.00;;;28.30
12918;BMP180;6526;54.312;13.092;2022-08-11T07:43:04;102972.00;;;28.60
12918;BMP180;6526;54.312;13.092;2022-08-11T07:45:32;102968.00;;;29.00
12918;BMP180;6526;54.312;13.092;2022-08-11T07:48:32;102970.00;;;29.00
12918;BMP180;6526;54.312;13.092;2022-08-11T07:51:19;102964.00;;;29.20
12918;BMP180;6526;54.312;13.092;2022-08-11T07:54:04;102963.00;;;29.30
12918;BMP180;6526;54.312;13.092;2022-08-11T07:56:38;102967.00;;;29.40
12918;BMP180;6526;54.312;13.092;2022-08-11T07:59:04;102970.00;;;29.30
12918;BMP180;6526;54.312;13.092;2022-08-11T08:01:50;102972.00;;;29.10
12918;BMP180;6526;54.312;13.092;2022-08-11T08:04:35;102971.00;;;29.30
12918;BMP180;6526;54.312;13.092;2022-08-11T08:07:21;102967.00;;;29.40
12918;BMP180;6526;54.312;13.092;2022-08-11T08:10:07;102959.00;;;29.70
12918;BMP180;6526;54.312;13.092;2022-08-11T08:12:54;102961.00;;;29.80
12918;BMP180;6526;54.312;13.092;2022-08-11T08:15:40;102973.00;;;29.90
12918;BMP180;6526;54.312;13.092;2022-08-11T08:18:25;102971.00;;;29.80
12918;BMP180;6526;54.312;13.092;2022-08-11T08:20:54;102980.00;;;29.60
12918;BMP180;6526;54.312;13.092;2022-08-11T08:23:22;102975.00;;;30.00
12918;BMP180;6526;54.312;13.092;2022-08-11T08:26:01;102981.00;;;30.50
12918;BMP180;6526;54.312;13.092;2022-08-11T08:28:28;102972.00;;;30.60
12918;BMP180;6526;54.312;13.092;2022-08-11T08:30:56;102978.00;;;30.70
12918;BMP180;6526;54.312;13.092;2022-08-11T08:35:56;102982.00;;;31.40
12918;BMP180;6526;54.312;13.092;2022-08-11T08:38:38;102976.00;;;31.60
12918;BMP180;6526;54.312;13.092;2022-08-11T08:41:05;102974.00;;;31.50
12918;BMP180;6526;54.312;13.092;2022-08-11T08:43:32;102969.00;;;31.20
12918;BMP180;6526;54.312;13.092;2022-08-11T08:46:00;102974.00;;;31.10
12918;BMP180;6526;54.312;13.092;2022-08-11T08:48:28;102975.00;;;31.50
12918;BMP180;6526;54.312;13.092;2022-08-11T08:51:06;102971.00;;;31.40
12918;BMP180;6526;54.312;13.092;2022-08-11T08:53:55;102980.00;;;31.20
12918;BMP180;6526;54.312;13.092;2022-08-11T08:56:26;102972.00;;;31.10
12918;BMP180;6526;54.312;13.092;2022-08-11T08:58:53;102978.00;;;31.00
12918;BMP180;6526;54.312;13.092;2022-08-11T09:01:20;102981.00;;;31.30
12918;BMP180;6526;54.312;13.092;2022-08-11T09:03:47;102975.00;;;31.60
12918;BMP180;6526;54.312;13.092;2022-08-11T09:06:15;102967.00;;;31.90
12918;BMP180;6526;54.312;13.092;2022-08-11T09:08:43;102972.00;;;31.80
12918;BMP180;6526;54.312;13.092;2022-08-11T09:11:10;102982.00;;;31.50
12918;BMP180;6526;54.312;13.092;2022-08-11T09:13:56;102965.00;;;31.50
12918;BMP180;6526;54.312;13.092;2022-08-11T09:16:22;102971.00;;;31.50
12918;BMP180;6526;54.312;13.092;2022-08-11T09:18:50;102966.00;;;31.60
12918;BMP180;6526;54.312;13.092;2022-08-11T09:21:17;102975.00;;;31.70
12918;BMP180;6526;54.312;13.092;2022-08-11T09:23:48;102975.00;;;31.80
12918;BMP180;6526;54.312;13.092;2022-08-11T09:26:35;102972.00;;;32.20
12918;BMP180;6526;54.312;13.092;2022-08-11T09:29:21;102981.00;;;32.10
12918;BMP180;6526;54.312;13.092;2022-08-11T09:31:47;102989.00;;;31.50
12918;BMP180;6526;54.312;13.092;2022-08-11T09:34:14;102985.00;;;31.40
12918;BMP180;6526;54.312;13.092;2022-08-11T09:36:42;102970.00;;;31.60
12918;BMP180;6526;54.312;13.092;2022-08-11T09:39:30;102968.00;;;31.70
12918;BMP180;6526;54.312;13.092;2022-08-11T09:42:16;102969.00;;;31.50
12918;BMP180;6526;54.312;13.092;2022-08-11T09:44:45;102963.00;;;31.40
12918;BMP180;6526;54.312;13.092;2022-08-11T09:47:17;102969.00;;;31.50
12918;BMP180;6526;54.312;13.092;2022-08-11T09:49:44;102963.00;;;32.20
12918;BMP180;6526;54.312;13.092;2022-08-11T09:52:12;102962.00;;;32.50
12918;BMP180;6526;54.312;13.092;2022-08-11T09:54:40;102964.00;;;32.90
12918;BMP180;6526;54.312;13.092;2022-08-11T09:57:07;102957.00;;;32.90
12918;BMP180;6526;54.312;13.092;2022-08-11T09:59:52;102948.00;;;33.10
12918;BMP180;6526;54.312;13.092;2022-08-11T10:02:27;102959.00;;;33.10
12918;BMP180;6526;54.312;13.092;2022-08-11T10:04:56;102964.00;;;33.60
12918;BMP180;6526;54.312;13.092;2022-08-11T10:07:46;102960.00;;;33.80
12918;BMP180;6526;54.312;13.092;2022-08-11T10:10:16;102969.00;;;33.70
12918;BMP180;6526;54.312;13.092;2022-08-11T10:12:50;102948.00;;;33.00
12918;BMP180;6526;54.312;13.092;2022-08-11T10:15:18;102968.00;;;33.00
12918;BMP180;6526;54.312;13.092;2022-08-11T10:18:07;102956.00;;;32.90
12918;BMP180;6526;54.312;13.092;2022-08-11T10:23:42;102952.00;;;32.10
12918;BMP180;6526;54.312;13.092;2022-08-11T10:26:28;102950.00;;;32.50
12918;BMP180;6526;54.312;13.092;2022-08-11T10:29:14;102939.00;;;32.90
12918;BMP180;6526;54.312;13.092;2022-08-11T10:32:00;102936.00;;;33.50
12918;BMP180;6526;54.312;13.092;2022-08-11T10:34:47;102928.00;;;33.50
12918;BMP180;6526;54.312;13.092;2022-08-11T10:37:15;102929.00;;;33.10
12918;BMP180;6526;54.312;13.092;2022-08-11T10:39:42;102938.00;;;33.30
12918;BMP180;6526;54.312;13.092;2022-08-11T10:42:10;102926.00;;;33.40
12918;BMP180;6526;54.312;13.092;2022-08-11T10:44:57;102935.00;;;33.40
12918;BMP180;6526;54.312;13.092;2022-08-11T10:47:24;102926.00;;;33.40
12918;BMP180;6526;54.312;13.092;2022-08-11T10:50:08;102926.00;;;32.60
12918;BMP180;6526;54.312;13.092;2022-08-11T10:52:54;102925.00;;;32.70
12918;BMP180;6526;54.312;13.092;2022-08-11T10:55:42;102922.00;;;33.00
12918;BMP180;6526;54.312;13.092;2022-08-11T10:58:27;102926.00;;;33.00
12918;BMP180;6526;54.312;13.092;2022-08-11T11:01:15;102919.00;;;33.20
12918;BMP180;6526;54.312;13.092;2022-08-11T11:03:42;102921.00;;;32.90
12918;BMP180;6526;54.312;13.092;2022-08-11T11:08:45;102916.00;;;32.10
12918;BMP180;6526;54.312;13.092;2022-08-11T11:11:23;102907.00;;;32.50
12918;BMP180;6526;54.312;13.092;2022-08-11T11:14:11;102902.00;;;32.80
12918;BMP180;6526;54.312;13.092;2022-08-11T11:16:58;102914.00;;;32.80
12918;BMP180;6526;54.312;13.092;2022-08-11T11:19:43;102905.00;;;32.80
12918;BMP180;6526;54.312;13.092;2022-08-11T11:22:12;102900.00;;;32.80
12918;BMP180;6526;54.312;13.092;2022-08-11T11:25:03;102905.00;;;32.70
12918;BMP180;6526;54.312;13.092;2022-08-11T11:27:59;102904.00;;;32.50
12918;BMP180;6526;54.312;13.092;2022-08-11T11:33:30;102901.00;;;31.80
12918;BMP180;6526;54.312;13.092;2022-08-11T11:36:24;102911.00;;;32.00
12918;BMP180;6526;54.312;13.092;2022-08-11T11:38:53;102900.00;;;32.50
12918;BMP180;6526;54.312;13.092;2022-08-11T11:41:24;102905.00;;;32.50
12918;BMP180;6526;54.312;13.092;2022-08-11T11:43:53;102907.00;;;32.40
12918;BMP180;6526;54.312;13.092;2022-08-11T11:46:19;102906.00;;;32.10
12918;BMP180;6526;54.312;13.092;2022-08-11T11:48:46;102910.00;;;31.90
12918;BMP180;6526;54.312;13.092;2022-08-11T11:51:12;102905.00;;;31.50
12918;BMP180;6526;54.312;13.092;2022-08-11T11:53:42;102903.00;;;31.40
12918;BMP180;6526;54.312;13.092;2022-08-11T11:56:10;102905.00;;;31.50
12918;BMP180;6526;54.312;13.092;2022-08-11T11:58:38;102905.00;;;31.40
12918;BMP180;6526;54.312;13.092;2022-08-11T12:01:24;102908.00;;;31.20
12918;BMP180;6526;54.312;13.092;2022-08-11T12:03:52;102905.00;;;31.10
12918;BMP180;6526;54.312;13.092;2022-08-11T12:06:23;102901.00;;;31.20
12918;BMP180;6526;54.312;13.092;2022-08-11T12:08:52;102904.00;;;31.60
12918;BMP180;6526;54.312;13.092;2022-08-11T12:11:20;102905.00;;;31.60
12918;BMP180;6526;54.312;13.092;2022-08-11T12:14:06;102897.00;;;31.70
12918;BMP180;6526;54.312;13.092;2022-08-11T12:16:35;102900.00;;;31.50
12918;BMP180;6526;54.312;13.092;2022-08-11T12:19:09;102897.00;;;31.10
12918;BMP180;6526;54.312;13.092;2022-08-11T12:21:38;102900.00;;;31.00
12918;BMP180;6526;54.312;13.092;2022-08-11T12:24:24;102890.00;;;31.10
12918;BMP180;6526;54.312;13.092;2022-08-11T12:27:10;102881.00;;;31.00
12918;BMP180;6526;54.312;13.092;2022-08-11T12:29:49;102880.00;;;31.20
12918;BMP180;6526;54.312;13.092;2022-08-11T12:32:15;102871.00;;;31.20
12918;BMP180;6526;54.312;13.092;2022-08-11T12:34:42;102867.00;;;31.20
12918;BMP180;6526;54.312;13.092;2022-08-11T12:37:09;102866.00;;;31.10
12918;BMP180;6526;54.312;13.092;2022-08-11T12:39:46;102868.00;;;31.00
12918;BMP180;6526;54.312;13.092;2022-08-11T12:42:33;102869.00;;;31.20
12918;BMP180;6526;54.312;13.092;2022-08-11T12:45:24;102861.00;;;31.10
12918;BMP180;6526;54.312;13.092;2022-08-11T12:48:08;102867.00;;;31.20
12918;BMP180;6526;54.312;13.092;2022-08-11T12:51:29;102862.00;;;31.20
12918;BMP180;6526;54.312;13.092;2022-08-11T12:54:45;102868.00;;;31.10
12918;BMP180;6526;54.312;13.092;2022-08-11T12:57:36;102869.00;;;30.60
12918;BMP180;6526;54.312;13.092;2022-08-11T13:00:23;102865.00;;;30.60
12918;BMP180;6526;54.312;13.092;2022-08-11T13:03:10;102857.00;;;30.60
12918;BMP180;6526;54.312;13.092;2022-08-11T13:05:58;102865.00;;;31.00
12918;BMP180;6526;54.312;13.092;2022-08-11T13:08:26;102858.00;;;31.20
12918;BMP180;6526;54.312;13.092;2022-08-11T13:10:56;102864.00;;;31.30
12918;BMP180;6526;54.312;13.092;2022-08-11T13:13:41;102859.00;;;31.50
12918;BMP180;6526;54.312;13.092;2022-08-11T13:16:10;102860.00;;;31.70
12918;BMP180;6526;54.312;13.092;2022-08-11T13:18:37;102851.00;;;31.60
12918;BMP180;6526;54.312;13.092;2022-08-11T13:21:04;102858.00;;;31.40
12918;BMP180;6526;54.312;13.092;2022-08-11T13:23:30;102864.00;;;31.20
12918;BMP180;6526;54.312;13.092;2022-08-11T13:25:57;102855.00;;;31.30
12918;BMP180;6526;54.312;13.092;2022-08-11T13:28:23;102850.00;;;31.20
12918;BMP180;6526;54.312;13.092;2022-08-11T13:30:50;102846.00;;;30.80
12918;BMP180;6526;54.312;13.092;2022-08-11T13:33:46;102846.00;;;30.60
12918;BMP180;6526;54.312;13.092;2022-08-11T13:36:20;102842.00;;;30.70
12918;BMP180;6526;54.312;13.092;2022-08-11T13:38:47;102837.00;;;30.50
12918;BMP180;6526;54.312;13.092;2022-08-11T13:41:14;102839.00;;;30.70
12918;BMP180;6526;54.312;13.092;2022-08-11T13:44:01;102830.00;;;30.90
12918;BMP180;6526;54.312;13.092;2022-08-11T13:46:28;102824.00;;;30.70
12918;BMP180;6526;54.312;13.092;2022-08-11T13:48:55;102824.00;;;30.70
12918;BMP180;6526;54.312;13.092;2022-08-11T13:51:24;102825.00;;;30.60
12918;BMP180;6526;54.312;13.092;2022-08-11T13:54:04;102828.00;;;30.50
12918;BMP180;6526;54.312;13.092;2022-08-11T13:56:32;102824.00;;;30.40
12918;BMP180;6526;54.312;13.092;2022-08-11T13:59:00;102829.00;;;30.20
12918;BMP180;6526;54.312;13.092;2022-08-11T14:01:33;102817.00;;;30.20
12918;BMP180;6526;54.312;13.092;2022-08-11T14:04:09;102831.00;;;30.40
12918;BMP180;6526;54.312;13.092;2022-08-11T14:06:37;102813.00;;;30.20
12918;BMP180;6526;54.312;13.092;2022-08-11T14:09:08;102818.00;;;30.20
12918;BMP180;6526;54.312;13.092;2022-08-11T14:11:35;102818.00;;;30.30
12918;BMP180;6526;54.312;13.092;2022-08-11T14:14:24;102817.00;;;30.20
12918;BMP180;6526;54.312;13.092;2022-08-11T14:16:53;102820.00;;;30.10
12918;BMP180;6526;54.312;13.092;2022-08-11T14:19:24;102810.00;;;30.00
12918;BMP180;6526;54.312;13.092;2022-08-11T14:21:51;102812.00;;;30.20
12918;BMP180;6526;54.312;13.092;2022-08-11T14:24:35;102811.00;;;30.30
12918;BMP180;6526;54.312;13.092;2022-08-11T14:27:02;102804.00;;;30.10
12918;BMP180;6526;54.312;13.092;2022-08-11T14:29:29;102815.00;;;30.10
12918;BMP180;6526;54.312;13.092;2022-08-11T14:32:02;102809.00;;;30.00
12918;BMP180;6526;54.312;13.092;2022-08-11T14:34:30;102806.00;;;29.90
12918;BMP180;6526;54.312;13.092;2022-08-11T14:37:03;102810.00;;;29.90
12918;BMP180;6526;54.312;13.092;2022-08-11T14:39:42;102813.00;;;29.60
12918;BMP180;6526;54.312;13.092;2022-08-11T14:42:09;102803.00;;;29.40
12918;BMP180;6526;54.312;13.092;2022-08-11T14:44:58;102796.00;;;29.40
12918;BMP180;6526;54.312;13.092;2022-08-11T14:47:28;102801.00;;;29.60
12918;BMP180;6526;54.312;13.092;2022-08-11T14:49:56;102799.00;;;29.50
12918;BMP180;6526;54.312;13.092;2022-08-11T14:52:24;102807.00;;;29.40
12918;BMP180;6526;54.312;13.092;2022-08-11T14:54:52;102806.00;;;29.60
12918;BMP180;6526;54.312;13.092;2022-08-11T14:57:38;102812.00;;;29.70
12918;BMP180;6526;54.312;13.092;2022-08-11T15:00:08;102800.00;;;29.80
12918;BMP180;6526;54.312;13.092;2022-08-11T15:02:39;102797.00;;;29.80
12918;BMP180;6526;54.312;13.092;2022-08-11T15:05:25;102798.00;;;29.80
12918;BMP180;6526;54.312;13.092;2022-08-11T15:07:53;102793.00;;;29.50
12918;BMP180;6526;54.312;13.092;2022-08-11T15:10:20;102788.00;;;29.30
12918;BMP180;6526;54.312;13.092;2022-08-11T15:12:47;102789.00;;;29.30
12918;BMP180;6526;54.312;13.092;2022-08-11T15:15:15;102785.00;;;29.10
12918;BMP180;6526;54.312;13.092;2022-08-11T15:18:04;102782.00;;;29.10
12918;BMP180;6526;54.312;13.092;2022-08-11T15:20:31;102775.00;;;29.00
12918;BMP180;6526;54.312;13.092;2022-08-11T15:23:16;102784.00;;;29.10
12918;BMP180;6526;54.312;13.092;2022-08-11T15:26:14;102777.00;;;29.10
12918;BMP180;6526;54.312;13.092;2022-08-11T15:28:46;102777.00;;;29.00
12918;BMP180;6526;54.312;13.092;2022-08-11T15:31:32;102767.00;;;28.90
12918;BMP180;6526;54.312;13.092;2022-08-11T15:34:19;102774.00;;;28.90
12918;BMP180;6526;54.312;13.092;2022-08-11T15:37:08;102778.00;;;29.00
12918;BMP180;6526;54.312;13.092;2022-08-11T15:39:57;102776.00;;;29.20
12918;BMP180;6526;54.312;13.092;2022-08-11T15:43:03;102763.00;;;29.10
12918;BMP180;6526;54.312;13.092;2022-08-11T15:45:52;102768.00;;;29.20
12918;BMP180;6526;54.312;13.092;2022-08-11T15:51:15;102759.00;;;29.20
12918;BMP180;6526;54.312;13.092;2022-08-11T15:53:46;102755.00;;;29.30
12918;BMP180;6526;54.312;13.092;2022-08-11T15:56:15;102760.00;;;29.30
12918;BMP180;6526;54.312;13.092;2022-08-11T15:58:46;102748.00;;;29.40
12918;BMP180;6526;54.312;13.092;2022-08-11T16:01:32;102754.00;;;29.40
12918;BMP180;6526;54.312;13.092;2022-08-11T16:04:21;102755.00;;;29.40
12918;BMP180;6526;54.312;13.092;2022-08-11T16:06:59;102756.00;;;29.40
12918;BMP180;6526;54.312;13.092;2022-08-11T16:09:47;102756.00;;;29.50
12918;BMP180;6526;54.312;13.092;2022-08-11T16:12:24;102745.00;;;29.40
12918;BMP180;6526;54.312;13.092;2022-08-11T16:14:56;102748.00;;;29.30
12918;BMP180;6526;54.312;13.092;2022-08-11T16:17:48;102749.00;;;29.30
12918;BMP180;6526;54.312;13.092;2022-08-11T16:20:18;102755.00;;;29.20
12918;BMP180;6526;54.312;13.092;2022-08-11T16:22:47;102746.00;;;29.00
12918;BMP180;6526;54.312;13.092;2022-08-11T16:25:18;102739.00;;;28.80
12918;BMP180;6526;54.312;13.092;2022-08-11T16:27:50;102749.00;;;28.60
12918;BMP180;6526;54.312;13.092;2022-08-11T16:30:16;102742.00;;;28.60
12918;BMP180;6526;54.312;13.092;2022-08-11T16:32:45;102744.00;;;28.60
12918;BMP180;6526;54.312;13.092;2022-08-11T16:35:16;102746.00;;;28.70
12918;BMP180;6526;54.312;13.092;2022-08-11T16:38:03;102746.00;;;28.60
12918;BMP180;6526;54.312;13.092;2022-08-11T16:40:51;102737.00;;;28.50
12918;BMP180;6526;54.312;13.092;2022-08-11T16:43:20;102740.00;;;28.40
12918;BMP180;6526;54.312;13.092;2022-08-11T16:46:07;102746.00;;;28.60
12918;BMP180;6526;54.312;13.092;2022-08-11T16:48:53;102728.00;;;28.70
12918;BMP180;6526;54.312;13.092;2022-08-11T16:51:20;102719.00;;;28.70
12918;BMP180;6526;54.312;13.092;2022-08-11T16:53:48;102727.00;;;28.90
12918;BMP180;6526;54.312;13.092;2022-08-11T16:56:19;102736.00;;;28.80
12918;BMP180;6526;54.312;13.092;2022-08-11T16:58:54;102727.00;;;28.60
12918;BMP180;6526;54.312;13.092;2022-08-11T17:01:41;102727.00;;;28.50
12918;BMP180;6526;54.312;13.092;2022-08-11T17:07:01;102727.00;;;28.00
12918;BMP180;6526;54.312;13.092;2022-08-11T17:09:48;102721.00;;;27.90
12918;BMP180;6526;54.312;13.092;2022-08-11T17:12:34;102721.00;;;27.90
12918;BMP180;6526;54.312;13.092;2022-08-11T17:15:22;102727.00;;;27.80
12918;BMP180;6526;54.312;13.092;2022-08-11T17:18:11;102727.00;;;27.70
12918;BMP180;6526;54.312;13.092;2022-08-11T17:20:59;102733.00;;;27.60
12918;BMP180;6526;54.312;13.092;2022-08-11T17:23:25;102734.00;;;27.60
12918;BMP180;6526;54.312;13.092;2022-08-11T17:26:11;102738.00;;;27.60
12918;BMP180;6526;54.312;13.092;2022-08-11T17:28:37;102736.00;;;27.50
12918;BMP180;6526;54.312;13.092;2022-08-11T17:31:07;102737.00;;;27.60
12918;BMP180;6526;54.312;13.092;2022-08-11T17:33:55;102740.00;;;27.60
12918;BMP180;6526;54.312;13.092;2022-08-11T17:36:41;102746.00;;;27.50
12918;BMP180;6526;54.312;13.092;2022-08-11T17:39:10;102745.00;;;27.50
12918;BMP180;6526;54.312;13.092;2022-08-11T17:41:38;102747.00;;;27.50
12918;BMP180;6526;54.312;13.092;2022-08-11T17:44:28;102743.00;;;27.30